sensor_id;sensor_type;location;lat;lon;timestamp;temperature;humidity
39079;DHT22;24829;49.208;12.080;2023-07-08T00:00:14;19.10;79.30
39079;DHT22;24829;49.208;12.080;2023-07-08T00:02:41;19.00;78.70
39079;DHT22;24829;49.208;12.080;2023-07-08T00:05:08;18.90;79.20
39079;DHT22;24829;49.208;12.080;2023-07-08T00:07:35;18.90;79.40
39079;DHT22;24829;49.208;12.080;2023-07-08T00:10:00;18.90;79.60
39079;DHT22;24829;49.208;12.080;2023-07-08T00:12:26;18.80;79.30
39079;DHT22;24829;49.208;12.080;2023-07-08T00:14:51;18.80;79.80
39079;DHT22;24829;49.208;12.080;2023-07-08T00:17:17;18.80;80.00
39079;DHT22;24829;49.208;12.080;2023-07-08T00:19:42;18.70;79.60
39079;DHT22;24829;49.208;12.080;2023-07-08T00:22:12;18.70;80.80
39079;DHT22;24829;49.208;12.080;2023-07-08T00:24:42;18.60;81.90
39079;DHT22;24829;49.208;12.080;2023-07-08T00:27:12;18.50;83.30
39079;DHT22;24829;49.208;12.080;2023-07-08T00:29:41;18.40;84.10
39079;DHT22;24829;49.208;12.080;2023-07-08T00:32:12;18.30;84.30
39079;DHT22;24829;49.208;12.080;2023-07-08T00:34:38;18.20;85.00
39079;DHT22;24829;49.208;12.080;2023-07-08T00:37:03;18.20;85.10
39079;DHT22;24829;49.208;12.080;2023-07-08T00:39:33;18.20;85.40
39079;DHT22;24829;49.208;12.080;2023-07-08T00:42:00;18.20;85.90
39079;DHT22;24829;49.208;12.080;2023-07-08T00:44:26;18.10;86.30
39079;DHT22;24829;49.208;12.080;2023-07-08T00:47:03;18.10;86.50
39079;DHT22;24829;49.208;12.080;2023-07-08T00:49:43;18.00;86.40
39079;DHT22;24829;49.208;12.080;2023-07-08T00:52:23;18.00;86.70
39079;DHT22;24829;49.208;12.080;2023-07-08T00:54:50;17.90;87.30
39079;DHT22;24829;49.208;12.080;2023-07-08T00:57:16;17.90;87.70
39079;DHT22;24829;49.208;12.080;2023-07-08T00:59:47;17.90;88.80
39079;DHT22;24829;49.208;12.080;2023-07-08T01:02:14;17.80;89.50
39079;DHT22;24829;49.208;12.080;2023-07-08T01:04:53;17.80;90.00
39079;DHT22;24829;49.208;12.080;2023-07-08T01:07:21;17.80;90.20
39079;DHT22;24829;49.208;12.080;2023-07-08T01:09:55;17.80;90.10
39079;DHT22;24829;49.208;12.080;2023-07-08T01:12:26;17.80;90.00
39079;DHT22;24829;49.208;12.080;2023-07-08T01:14:53;17.90;90.20
39079;DHT22;24829;49.208;12.080;2023-07-08T01:17:21;17.90;89.60
39079;DHT22;24829;49.208;12.080;2023-07-08T01:19:47;17.90;89.30
39079;DHT22;24829;49.208;12.080;2023-07-08T01:22:14;18.00;88.60
39079;DHT22;24829;49.208;12.080;2023-07-08T01:24:41;18.00;88.90
39079;DHT22;24829;49.208;12.080;2023-07-08T01:27:11;18.00;89.30
39079;DHT22;24829;49.208;12.080;2023-07-08T01:29:37;18.00;89.60
39079;DHT22;24829;49.208;12.080;2023-07-08T01:32:03;18.00;89.80
39079;DHT22;24829;49.208;12.080;2023-07-08T01:34:30;17.90;90.20
39079;DHT22;24829;49.208;12.080;2023-07-08T01:36:57;17.90;90.50
39079;DHT22;24829;49.208;12.080;2023-07-08T01:39:25;17.90;90.60
39079;DHT22;24829;49.208;12.080;2023-07-08T01:41:51;17.80;90.90
39079;DHT22;24829;49.208;12.080;2023-07-08T01:44:30;17.80;91.20
39079;DHT22;24829;49.208;12.080;2023-07-08T01:46:59;17.70;91.40
39079;DHT22;24829;49.208;12.080;2023-07-08T01:49:26;17.70;91.50
39079;DHT22;24829;49.208;12.080;2023-07-08T01:51:52;17.60;91.80
39079;DHT22;24829;49.208;12.080;2023-07-08T01:54:17;17.50;92.10
39079;DHT22;24829;49.208;12.080;2023-07-08T01:56:43;17.40;92.30
39079;DHT22;24829;49.208;12.080;2023-07-08T01:59:08;17.40;92.50
39079;DHT22;24829;49.208;12.080;2023-07-08T02:01:34;17.30;92.80
39079;DHT22;24829;49.208;12.080;2023-07-08T02:04:00;17.30;93.20
39079;DHT22;24829;49.208;12.080;2023-07-08T02:06:25;17.30;93.30
39079;DHT22;24829;49.208;12.080;2023-07-08T02:08:51;17.20;93.60
39079;DHT22;24829;49.208;12.080;2023-07-08T02:11:16;17.20;93.80
39079;DHT22;24829;49.208;12.080;2023-07-08T02:13:42;17.30;94.10
39079;DHT22;24829;49.208;12.080;2023-07-08T02:16:08;17.20;94.10
39079;DHT22;24829;49.208;12.080;2023-07-08T02:18:33;17.30;94.20
39079;DHT22;24829;49.208;12.080;2023-07-08T02:20:59;17.40;94.00
39079;DHT22;24829;49.208;12.080;2023-07-08T02:23:27;17.50;93.90
39079;DHT22;24829;49.208;12.080;2023-07-08T02:25:54;17.50;93.90
39079;DHT22;24829;49.208;12.080;2023-07-08T02:28:20;17.50;94.30
39079;DHT22;24829;49.208;12.080;2023-07-08T02:30:46;17.40;94.70
39079;DHT22;24829;49.208;12.080;2023-07-08T02:33:12;17.30;94.70
39079;DHT22;24829;49.208;12.080;2023-07-08T02:35:39;17.30;94.80
39079;DHT22;24829;49.208;12.080;2023-07-08T02:38:05;17.30;95.50
39079;DHT22;24829;49.208;12.080;2023-07-08T02:40:31;17.10;95.60
39079;DHT22;24829;49.208;12.080;2023-07-08T02:42:56;17.20;95.80
39079;DHT22;24829;49.208;12.080;2023-07-08T02:45:22;17.10;96.00
39079;DHT22;24829;49.208;12.080;2023-07-08T02:47:47;17.10;96.20
39079;DHT22;24829;49.208;12.080;2023-07-08T02:50:13;17.00;96.70
39079;DHT22;24829;49.208;12.080;2023-07-08T02:52:39;17.00;96.90
39079;DHT22;24829;49.208;12.080;2023-07-08T02:55:05;17.00;96.90
39079;DHT22;24829;49.208;12.080;2023-07-08T02:57:31;17.00;97.20
39079;DHT22;24829;49.208;12.080;2023-07-08T02:59:56;16.80;97.60
39079;DHT22;24829;49.208;12.080;2023-07-08T03:02:22;16.80;98.20
39079;DHT22;24829;49.208;12.080;2023-07-08T03:04:48;16.70;98.30
39079;DHT22;24829;49.208;12.080;2023-07-08T03:07:16;16.70;98.60
39079;DHT22;24829;49.208;12.080;2023-07-08T03:09:41;16.70;98.90
39079;DHT22;24829;49.208;12.080;2023-07-08T03:12:08;16.70;99.40
39079;DHT22;24829;49.208;12.080;2023-07-08T03:14:34;16.60;99.40
39079;DHT22;24829;49.208;12.080;2023-07-08T03:17:00;16.60;99.80
39079;DHT22;24829;49.208;12.080;2023-07-08T03:19:26;16.60;99.90
39079;DHT22;24829;49.208;12.080;2023-07-08T03:21:52;16.60;99.90
39079;DHT22;24829;49.208;12.080;2023-07-08T03:24:17;16.60;99.90
39079;DHT22;24829;49.208;12.080;2023-07-08T03:26:44;16.60;99.90
39079;DHT22;24829;49.208;12.080;2023-07-08T03:29:17;16.60;99.90
39079;DHT22;24829;49.208;12.080;2023-07-08T03:31:44;16.60;99.90
39079;DHT22;24829;49.208;12.080;2023-07-08T03:34:14;16.50;99.90
39079;DHT22;24829;49.208;12.080;2023-07-08T03:36:43;16.50;99.90
39079;DHT22;24829;49.208;12.080;2023-07-08T03:39:21;16.50;99.90
39079;DHT22;24829;49.208;12.080;2023-07-08T03:41:48;16.60;99.90
39079;DHT22;24829;49.208;12.080;2023-07-08T03:44:14;16.70;99.90
39079;DHT22;24829;49.208;12.080;2023-07-08T03:46:43;16.70;99.90
39079;DHT22;24829;49.208;12.080;2023-07-08T03:49:10;16.80;99.90
39079;DHT22;24829;49.208;12.080;2023-07-08T03:51:38;16.80;99.90
39079;DHT22;24829;49.208;12.080;2023-07-08T03:54:05;16.80;99.90
39079;DHT22;24829;49.208;12.080;2023-07-08T03:56:32;16.80;99.90
39079;DHT22;24829;49.208;12.080;2023-07-08T03:58:57;16.70;99.90
39079;DHT22;24829;49.208;12.080;2023-07-08T04:01:24;16.70;99.90
39079;DHT22;24829;49.208;12.080;2023-07-08T04:03:55;16.60;99.90
39079;DHT22;24829;49.208;12.080;2023-07-08T04:06:21;16.60;99.90
39079;DHT22;24829;49.208;12.080;2023-07-08T04:08:47;16.50;99.90
39079;DHT22;24829;49.208;12.080;2023-07-08T04:11:15;16.70;99.90
39079;DHT22;24829;49.208;12.080;2023-07-08T04:13:41;17.10;99.90
39079;DHT22;24829;49.208;12.080;2023-07-08T04:16:07;17.70;99.90
39079;DHT22;24829;49.208;12.080;2023-07-08T04:18:33;18.40;99.90
39079;DHT22;24829;49.208;12.080;2023-07-08T04:20:59;19.10;99.40
39079;DHT22;24829;49.208;12.080;2023-07-08T04:23:25;19.70;97.70
39079;DHT22;24829;49.208;12.080;2023-07-08T04:25:53;20.10;96.70
39079;DHT22;24829;49.208;12.080;2023-07-08T04:28:20;20.40;96.40
39079;DHT22;24829;49.208;12.080;2023-07-08T04:30:47;20.70;95.40
39079;DHT22;24829;49.208;12.080;2023-07-08T04:33:14;21.00;94.70
39079;DHT22;24829;49.208;12.080;2023-07-08T04:35:40;21.30;93.90
39079;DHT22;24829;49.208;12.080;2023-07-08T04:38:09;21.60;93.40
39079;DHT22;24829;49.208;12.080;2023-07-08T04:40:39;21.90;93.00
39079;DHT22;24829;49.208;12.080;2023-07-08T04:43:08;22.20;92.40
39079;DHT22;24829;49.208;12.080;2023-07-08T04:45:36;22.50;91.80
39079;DHT22;24829;49.208;12.080;2023-07-08T04:48:03;22.90;91.10
39079;DHT22;24829;49.208;12.080;2023-07-08T04:50:34;23.10;90.50
39079;DHT22;24829;49.208;12.080;2023-07-08T04:52:59;23.20;90.00
39079;DHT22;24829;49.208;12.080;2023-07-08T04:55:25;23.20;89.60
39079;DHT22;24829;49.208;12.080;2023-07-08T04:57:51;23.30;88.60
39079;DHT22;24829;49.208;12.080;2023-07-08T05:00:17;23.50;88.20
39079;DHT22;24829;49.208;12.080;2023-07-08T05:02:44;23.60;87.20
39079;DHT22;24829;49.208;12.080;2023-07-08T05:05:10;23.60;87.20
39079;DHT22;24829;49.208;12.080;2023-07-08T05:07:36;23.80;86.30
39079;DHT22;24829;49.208;12.080;2023-07-08T05:10:02;23.90;85.90
39079;DHT22;24829;49.208;12.080;2023-07-08T05:12:28;23.70;85.50
39079;DHT22;24829;49.208;12.080;2023-07-08T05:14:53;23.60;85.70
39079;DHT22;24829;49.208;12.080;2023-07-08T05:17:19;23.90;85.50
39079;DHT22;24829;49.208;12.080;2023-07-08T05:19:44;24.00;84.90
39079;DHT22;24829;49.208;12.080;2023-07-08T05:22:11;24.20;84.00
39079;DHT22;24829;49.208;12.080;2023-07-08T05:24:38;24.30;83.40
39079;DHT22;24829;49.208;12.080;2023-07-08T05:27:03;24.30;83.30
39079;DHT22;24829;49.208;12.080;2023-07-08T05:29:29;24.70;82.60
39079;DHT22;24829;49.208;12.080;2023-07-08T05:31:55;24.90;81.90
39079;DHT22;24829;49.208;12.080;2023-07-08T05:34:20;25.10;81.00
39079;DHT22;24829;49.208;12.080;2023-07-08T05:36:46;25.30;80.50
39079;DHT22;24829;49.208;12.080;2023-07-08T05:39:12;25.70;80.00
39079;DHT22;24829;49.208;12.080;2023-07-08T05:41:38;25.70;79.00
39079;DHT22;24829;49.208;12.080;2023-07-08T05:44:03;25.80;79.40
39079;DHT22;24829;49.208;12.080;2023-07-08T05:46:29;25.80;79.30
39079;DHT22;24829;49.208;12.080;2023-07-08T05:48:55;26.00;79.10
39079;DHT22;24829;49.208;12.080;2023-07-08T05:51:20;26.00;78.90
39079;DHT22;24829;49.208;12.080;2023-07-08T05:53:46;26.00;78.70
39079;DHT22;24829;49.208;12.080;2023-07-08T05:56:11;26.00;79.20
39079;DHT22;24829;49.208;12.080;2023-07-08T05:58:37;26.10;78.90
39079;DHT22;24829;49.208;12.080;2023-07-08T06:01:03;26.10;78.40
39079;DHT22;24829;49.208;12.080;2023-07-08T06:03:28;26.20;78.80
39079;DHT22;24829;49.208;12.080;2023-07-08T06:05:54;26.40;78.30
39079;DHT22;24829;49.208;12.080;2023-07-08T06:08:20;26.60;77.90
39079;DHT22;24829;49.208;12.080;2023-07-08T06:10:46;26.80;77.60
39079;DHT22;24829;49.208;12.080;2023-07-08T06:13:12;27.00;76.80
39079;DHT22;24829;49.208;12.080;2023-07-08T06:15:39;27.10;76.90
39079;DHT22;24829;49.208;12.080;2023-07-08T06:18:05;27.30;76.20
39079;DHT22;24829;49.208;12.080;2023-07-08T06:20:30;27.20;76.40
39079;DHT22;24829;49.208;12.080;2023-07-08T06:22:56;27.30;76.20
39079;DHT22;24829;49.208;12.080;2023-07-08T06:25:22;27.50;75.60
39079;DHT22;24829;49.208;12.080;2023-07-08T06:27:47;27.40;75.30
39079;DHT22;24829;49.208;12.080;2023-07-08T06:30:13;27.50;75.50
39079;DHT22;24829;49.208;12.080;2023-07-08T06:32:38;27.50;74.90
39079;DHT22;24829;49.208;12.080;2023-07-08T06:35:04;27.50;74.70
39079;DHT22;24829;49.208;12.080;2023-07-08T06:37:30;27.60;74.80
39079;DHT22;24829;49.208;12.080;2023-07-08T06:39:56;27.80;73.80
39079;DHT22;24829;49.208;12.080;2023-07-08T06:42:21;27.70;74.20
39079;DHT22;24829;49.208;12.080;2023-07-08T06:44:47;27.80;74.50
39079;DHT22;24829;49.208;12.080;2023-07-08T06:47:20;27.70;73.60
39079;DHT22;24829;49.208;12.080;2023-07-08T06:49:48;27.80;74.30
39079;DHT22;24829;49.208;12.080;2023-07-08T06:52:14;27.70;74.50
39079;DHT22;24829;49.208;12.080;2023-07-08T06:54:40;27.70;74.50
39079;DHT22;24829;49.208;12.080;2023-07-08T06:57:06;27.90;74.70
39079;DHT22;24829;49.208;12.080;2023-07-08T06:59:32;28.10;74.30
39079;DHT22;24829;49.208;12.080;2023-07-08T07:01:58;28.20;73.90
39079;DHT22;24829;49.208;12.080;2023-07-08T07:04:23;28.30;73.80
39079;DHT22;24829;49.208;12.080;2023-07-08T07:06:49;28.50;73.80
39079;DHT22;24829;49.208;12.080;2023-07-08T07:09:14;28.30;73.50
39079;DHT22;24829;49.208;12.080;2023-07-08T07:11:40;28.10;73.10
39079;DHT22;24829;49.208;12.080;2023-07-08T07:14:06;27.90;72.10
39079;DHT22;24829;49.208;12.080;2023-07-08T07:16:32;27.80;72.10
39079;DHT22;24829;49.208;12.080;2023-07-08T07:18:57;27.90;73.20
39079;DHT22;24829;49.208;12.080;2023-07-08T07:21:23;28.20;72.30
39079;DHT22;24829;49.208;12.080;2023-07-08T07:23:48;28.30;71.00
39079;DHT22;24829;49.208;12.080;2023-07-08T07:26:14;28.50;70.30
39079;DHT22;24829;49.208;12.080;2023-07-08T07:28:39;28.70;70.50
39079;DHT22;24829;49.208;12.080;2023-07-08T07:31:05;28.80;70.20
39079;DHT22;24829;49.208;12.080;2023-07-08T07:33:36;29.00;67.50
39079;DHT22;24829;49.208;12.080;2023-07-08T07:36:02;29.00;67.60
39079;DHT22;24829;49.208;12.080;2023-07-08T07:38:27;29.20;68.30
39079;DHT22;24829;49.208;12.080;2023-07-08T07:40:55;29.30;69.10
39079;DHT22;24829;49.208;12.080;2023-07-08T07:43:21;29.50;68.70
39079;DHT22;24829;49.208;12.080;2023-07-08T07:45:50;29.50;68.50
39079;DHT22;24829;49.208;12.080;2023-07-08T07:48:17;29.60;66.50
39079;DHT22;24829;49.208;12.080;2023-07-08T07:50:47;29.60;66.10
39079;DHT22;24829;49.208;12.080;2023-07-08T07:53:13;29.50;65.00
39079;DHT22;24829;49.208;12.080;2023-07-08T07:55:39;29.50;65.20
39079;DHT22;24829;49.208;12.080;2023-07-08T07:58:04;29.30;63.60
39079;DHT22;24829;49.208;12.080;2023-07-08T08:00:30;29.30;63.40
39079;DHT22;24829;49.208;12.080;2023-07-08T08:02:56;29.30;62.50
39079;DHT22;24829;49.208;12.080;2023-07-08T08:05:21;29.30;62.20
39079;DHT22;24829;49.208;12.080;2023-07-08T08:07:47;29.50;62.40
39079;DHT22;24829;49.208;12.080;2023-07-08T08:10:13;29.70;61.90
39079;DHT22;24829;49.208;12.080;2023-07-08T08:12:39;29.90;61.20
39079;DHT22;24829;49.208;12.080;2023-07-08T08:15:05;30.00;59.40
39079;DHT22;24829;49.208;12.080;2023-07-08T08:17:31;30.20;58.70
39079;DHT22;24829;49.208;12.080;2023-07-08T08:19:57;29.90;57.70
39079;DHT22;24829;49.208;12.080;2023-07-08T08:22:22;29.80;57.20
39079;DHT22;24829;49.208;12.080;2023-07-08T08:24:48;29.40;57.00
39079;DHT22;24829;49.208;12.080;2023-07-08T08:27:14;29.20;57.30
39079;DHT22;24829;49.208;12.080;2023-07-08T08:29:40;28.90;57.20
39079;DHT22;24829;49.208;12.080;2023-07-08T08:32:05;28.70;57.60
39079;DHT22;24829;49.208;12.080;2023-07-08T08:34:31;28.80;57.40
39079;DHT22;24829;49.208;12.080;2023-07-08T08:36:57;28.90;57.00
39079;DHT22;24829;49.208;12.080;2023-07-08T08:39:23;29.00;57.70
39079;DHT22;24829;49.208;12.080;2023-07-08T08:41:50;29.00;57.60
39079;DHT22;24829;49.208;12.080;2023-07-08T08:44:25;28.90;57.70
39079;DHT22;24829;49.208;12.080;2023-07-08T08:49:49;28.90;57.90
39079;DHT22;24829;49.208;12.080;2023-07-08T08:52:16;29.20;57.70
39079;DHT22;24829;49.208;12.080;2023-07-08T08:54:41;29.60;56.90
39079;DHT22;24829;49.208;12.080;2023-07-08T08:57:31;30.00;56.60
39079;DHT22;24829;49.208;12.080;2023-07-08T08:59:59;30.20;56.80
39079;DHT22;24829;49.208;12.080;2023-07-08T09:05:08;30.40;55.90
39079;DHT22;24829;49.208;12.080;2023-07-08T09:12:55;31.30;54.80
39079;DHT22;24829;49.208;12.080;2023-07-08T09:15:22;31.30;54.90
39079;DHT22;24829;49.208;12.080;2023-07-08T09:17:51;31.30;54.60
39079;DHT22;24829;49.208;12.080;2023-07-08T09:20:25;31.20;53.90
39079;DHT22;24829;49.208;12.080;2023-07-08T09:23:11;31.30;54.10
39079;DHT22;24829;49.208;12.080;2023-07-08T09:25:51;31.40;53.60
39079;DHT22;24829;49.208;12.080;2023-07-08T09:28:18;31.70;53.70
39079;DHT22;24829;49.208;12.080;2023-07-08T09:30:48;32.10;52.90
39079;DHT22;24829;49.208;12.080;2023-07-08T09:33:16;32.40;53.10
39079;DHT22;24829;49.208;12.080;2023-07-08T09:35:46;32.40;52.60
39079;DHT22;24829;49.208;12.080;2023-07-08T09:38:17;32.50;52.40
39079;DHT22;24829;49.208;12.080;2023-07-08T09:40:53;32.70;52.30
39079;DHT22;24829;49.208;12.080;2023-07-08T09:43:34;32.70;50.00
39079;DHT22;24829;49.208;12.080;2023-07-08T09:46:03;32.50;49.40
39079;DHT22;24829;49.208;12.080;2023-07-08T09:48:36;32.30;49.80
39079;DHT22;24829;49.208;12.080;2023-07-08T09:51:03;32.20;49.00
39079;DHT22;24829;49.208;12.080;2023-07-08T09:53:29;32.10;50.10
39079;DHT22;24829;49.208;12.080;2023-07-08T09:55:59;31.90;47.90
39079;DHT22;24829;49.208;12.080;2023-07-08T09:58:37;31.80;48.30
39079;DHT22;24829;49.208;12.080;2023-07-08T10:01:10;31.70;49.10
39079;DHT22;24829;49.208;12.080;2023-07-08T10:03:36;31.70;50.50
39079;DHT22;24829;49.208;12.080;2023-07-08T10:06:14;31.70;50.30
39079;DHT22;24829;49.208;12.080;2023-07-08T10:08:42;31.50;50.30
39079;DHT22;24829;49.208;12.080;2023-07-08T10:13:46;31.10;52.00
39079;DHT22;24829;49.208;12.080;2023-07-08T10:18:46;31.00;53.70
39079;DHT22;24829;49.208;12.080;2023-07-08T10:24:37;31.50;53.90
39079;DHT22;24829;49.208;12.080;2023-07-08T10:27:15;31.70;53.50
39079;DHT22;24829;49.208;12.080;2023-07-08T10:29:52;32.00;51.70
39079;DHT22;24829;49.208;12.080;2023-07-08T10:32:45;32.20;51.50
39079;DHT22;24829;49.208;12.080;2023-07-08T10:35:25;32.30;50.50
39079;DHT22;24829;49.208;12.080;2023-07-08T10:38:30;32.20;51.50
39079;DHT22;24829;49.208;12.080;2023-07-08T10:44:13;31.70;51.10
39079;DHT22;24829;49.208;12.080;2023-07-08T11:05:50;32.00;52.50
39079;DHT22;24829;49.208;12.080;2023-07-08T11:08:27;32.20;51.10
39079;DHT22;24829;49.208;12.080;2023-07-08T11:11:02;32.20;49.80
39079;DHT22;24829;49.208;12.080;2023-07-08T11:13:30;32.20;50.00
39079;DHT22;24829;49.208;12.080;2023-07-08T11:16:08;32.30;49.70
39079;DHT22;24829;49.208;12.080;2023-07-08T11:26:10;32.30;48.80
39079;DHT22;24829;49.208;12.080;2023-07-08T11:28:37;32.00;49.30
39079;DHT22;24829;49.208;12.080;2023-07-08T11:31:03;31.80;50.20
39079;DHT22;24829;49.208;12.080;2023-07-08T11:33:30;31.70;49.60
39079;DHT22;24829;49.208;12.080;2023-07-08T11:35:57;31.60;50.10
39079;DHT22;24829;49.208;12.080;2023-07-08T11:38:25;31.70;51.60
39079;DHT22;24829;49.208;12.080;2023-07-08T11:43:34;31.90;51.70
39079;DHT22;24829;49.208;12.080;2023-07-08T11:46:05;32.10;51.40
39079;DHT22;24829;49.208;12.080;2023-07-08T11:48:39;32.10;50.70
39079;DHT22;24829;49.208;12.080;2023-07-08T11:51:08;32.30;50.80
39079;DHT22;24829;49.208;12.080;2023-07-08T11:53:47;32.30;51.30
39079;DHT22;24829;49.208;12.080;2023-07-08T11:59:08;32.40;51.00
39079;DHT22;24829;49.208;12.080;2023-07-08T12:04:25;32.20;49.80
39079;DHT22;24829;49.208;12.080;2023-07-08T12:07:17;31.90;50.00
39079;DHT22;24829;49.208;12.080;2023-07-08T12:09:57;31.80;51.60
39079;DHT22;24829;49.208;12.080;2023-07-08T12:12:29;31.60;51.20
39079;DHT22;24829;49.208;12.080;2023-07-08T12:17:39;31.70;50.70
39079;DHT22;24829;49.208;12.080;2023-07-08T12:20:32;31.70;50.20
39079;DHT22;24829;49.208;12.080;2023-07-08T12:22:58;32.00;50.20
39079;DHT22;24829;49.208;12.080;2023-07-08T12:25:31;32.30;49.10
39079;DHT22;24829;49.208;12.080;2023-07-08T12:27:58;32.30;48.90
39079;DHT22;24829;49.208;12.080;2023-07-08T12:30:25;32.30;48.50
39079;DHT22;24829;49.208;12.080;2023-07-08T12:32:52;32.30;48.50
39079;DHT22;24829;49.208;12.080;2023-07-08T12:35:28;32.20;48.90
39079;DHT22;24829;49.208;12.080;2023-07-08T12:37:58;32.10;48.40
39079;DHT22;24829;49.208;12.080;2023-07-08T12:40:26;32.00;48.20
39079;DHT22;24829;49.208;12.080;2023-07-08T12:42:53;32.10;49.30
39079;DHT22;24829;49.208;12.080;2023-07-08T12:45:22;32.30;48.60
39079;DHT22;24829;49.208;12.080;2023-07-08T12:47:48;32.50;48.90
39079;DHT22;24829;49.208;12.080;2023-07-08T12:50:14;32.50;47.80
39079;DHT22;24829;49.208;12.080;2023-07-08T12:52:42;32.40;48.00
39079;DHT22;24829;49.208;12.080;2023-07-08T12:55:09;32.30;47.80
39079;DHT22;24829;49.208;12.080;2023-07-08T12:57:36;32.30;48.50
39079;DHT22;24829;49.208;12.080;2023-07-08T13:00:02;32.20;48.10
39079;DHT22;24829;49.208;12.080;2023-07-08T13:02:30;32.20;47.60
39079;DHT22;24829;49.208;12.080;2023-07-08T13:04:59;32.20;47.20
39079;DHT22;24829;49.208;12.080;2023-07-08T13:07:36;32.00;47.80
39079;DHT22;24829;49.208;12.080;2023-07-08T13:10:06;32.00;48.10
39079;DHT22;24829;49.208;12.080;2023-07-08T13:12:34;32.00;48.60
39079;DHT22;24829;49.208;12.080;2023-07-08T13:15:06;32.00;47.90
39079;DHT22;24829;49.208;12.080;2023-07-08T13:17:35;32.10;47.60
39079;DHT22;24829;49.208;12.080;2023-07-08T13:20:03;32.10;48.10
39079;DHT22;24829;49.208;12.080;2023-07-08T13:22:29;32.10;47.00
39079;DHT22;24829;49.208;12.080;2023-07-08T13:25:00;32.00;47.80
39079;DHT22;24829;49.208;12.080;2023-07-08T13:27:27;32.10;48.40
39079;DHT22;24829;49.208;12.080;2023-07-08T13:30:06;32.10;47.50
39079;DHT22;24829;49.208;12.080;2023-07-08T13:32:33;32.00;47.30
39079;DHT22;24829;49.208;12.080;2023-07-08T13:35:02;32.00;47.80
39079;DHT22;24829;49.208;12.080;2023-07-08T13:37:30;32.00;47.50
39079;DHT22;24829;49.208;12.080;2023-07-08T13:39:56;31.80;47.70
39079;DHT22;24829;49.208;12.080;2023-07-08T13:42:22;31.70;48.50
39079;DHT22;24829;49.208;12.080;2023-07-08T13:44:48;31.70;48.20
39079;DHT22;24829;49.208;12.080;2023-07-08T13:47:23;31.70;48.40
39079;DHT22;24829;49.208;12.080;2023-07-08T13:49:58;31.60;48.10
39079;DHT22;24829;49.208;12.080;2023-07-08T13:52:25;31.50;48.80
39079;DHT22;24829;49.208;12.080;2023-07-08T13:54:54;31.40;48.40
39079;DHT22;24829;49.208;12.080;2023-07-08T13:57:27;31.40;48.60
39079;DHT22;24829;49.208;12.080;2023-07-08T13:59:53;31.30;49.40
39079;DHT22;24829;49.208;12.080;2023-07-08T14:02:25;31.30;49.80
39079;DHT22;24829;49.208;12.080;2023-07-08T14:04:53;31.40;49.90
39079;DHT22;24829;49.208;12.080;2023-07-08T14:07:22;31.30;48.90
39079;DHT22;24829;49.208;12.080;2023-07-08T14:09:48;31.30;48.90
39079;DHT22;24829;49.208;12.080;2023-07-08T14:12:14;31.20;49.10
39079;DHT22;24829;49.208;12.080;2023-07-08T14:14:39;31.20;49.80
39079;DHT22;24829;49.208;12.080;2023-07-08T14:17:09;31.10;49.90
39079;DHT22;24829;49.208;12.080;2023-07-08T14:19:36;31.00;49.10
39079;DHT22;24829;49.208;12.080;2023-07-08T14:22:27;31.00;49.60
39079;DHT22;24829;49.208;12.080;2023-07-08T14:24:54;31.00;49.50
39079;DHT22;24829;49.208;12.080;2023-07-08T14:27:20;31.00;49.00
39079;DHT22;24829;49.208;12.080;2023-07-08T14:29:48;30.90;49.10
39079;DHT22;24829;49.208;12.080;2023-07-08T14:32:21;30.80;49.10
39079;DHT22;24829;49.208;12.080;2023-07-08T14:34:51;30.80;49.70
39079;DHT22;24829;49.208;12.080;2023-07-08T14:37:18;30.80;50.00
39079;DHT22;24829;49.208;12.080;2023-07-08T14:39:44;30.80;49.70
39079;DHT22;24829;49.208;12.080;2023-07-08T14:42:12;30.70;50.40
39079;DHT22;24829;49.208;12.080;2023-07-08T14:44:39;30.80;50.50
39079;DHT22;24829;49.208;12.080;2023-07-08T14:47:13;30.70;50.80
39079;DHT22;24829;49.208;12.080;2023-07-08T14:49:39;30.70;50.70
39079;DHT22;24829;49.208;12.080;2023-07-08T14:52:06;30.70;51.00
39079;DHT22;24829;49.208;12.080;2023-07-08T14:54:32;30.70;51.80
39079;DHT22;24829;49.208;12.080;2023-07-08T14:56:57;30.80;51.90
39079;DHT22;24829;49.208;12.080;2023-07-08T14:59:25;30.80;51.80
39079;DHT22;24829;49.208;12.080;2023-07-08T15:01:53;30.80;51.70
39079;DHT22;24829;49.208;12.080;2023-07-08T15:04:19;30.80;51.00
39079;DHT22;24829;49.208;12.080;2023-07-08T15:06:45;30.90;51.70
39079;DHT22;24829;49.208;12.080;2023-07-08T15:09:12;30.90;51.30
39079;DHT22;24829;49.208;12.080;2023-07-08T15:11:39;30.90;51.30
39079;DHT22;24829;49.208;12.080;2023-07-08T15:14:25;30.90;51.50
39079;DHT22;24829;49.208;12.080;2023-07-08T15:16:52;30.90;51.50
39079;DHT22;24829;49.208;12.080;2023-07-08T15:19:19;30.90;50.90
39079;DHT22;24829;49.208;12.080;2023-07-08T15:21:45;31.00;50.40
39079;DHT22;24829;49.208;12.080;2023-07-08T15:24:12;31.10;49.80
39079;DHT22;24829;49.208;12.080;2023-07-08T15:26:44;31.20;49.70
39079;DHT22;24829;49.208;12.080;2023-07-08T15:29:14;31.30;49.80
39079;DHT22;24829;49.208;12.080;2023-07-08T15:31:40;31.40;49.90
39079;DHT22;24829;49.208;12.080;2023-07-08T15:34:15;31.40;49.90
39079;DHT22;24829;49.208;12.080;2023-07-08T15:36:41;31.50;49.60
39079;DHT22;24829;49.208;12.080;2023-07-08T15:39:07;31.50;49.10
39079;DHT22;24829;49.208;12.080;2023-07-08T15:41:34;31.50;49.70
39079;DHT22;24829;49.208;12.080;2023-07-08T15:44:00;31.40;49.80
39079;DHT22;24829;49.208;12.080;2023-07-08T15:46:40;31.30;49.50
39079;DHT22;24829;49.208;12.080;2023-07-08T15:51:42;31.30;49.60
39079;DHT22;24829;49.208;12.080;2023-07-08T15:54:08;31.20;50.60
39079;DHT22;24829;49.208;12.080;2023-07-08T15:56:33;31.30;50.10
39079;DHT22;24829;49.208;12.080;2023-07-08T15:58:59;31.30;50.40
39079;DHT22;24829;49.208;12.080;2023-07-08T16:01:25;31.30;49.40
39079;DHT22;24829;49.208;12.080;2023-07-08T16:03:51;31.40;49.70
39079;DHT22;24829;49.208;12.080;2023-07-08T16:06:17;31.40;48.90
39079;DHT22;24829;49.208;12.080;2023-07-08T16:08:44;31.30;48.50
39079;DHT22;24829;49.208;12.080;2023-07-08T16:11:20;31.20;48.60
39079;DHT22;24829;49.208;12.080;2023-07-08T16:13:50;31.20;48.30
39079;DHT22;24829;49.208;12.080;2023-07-08T16:16:16;31.20;48.50
39079;DHT22;24829;49.208;12.080;2023-07-08T16:18:41;31.10;48.20
39079;DHT22;24829;49.208;12.080;2023-07-08T16:21:07;31.00;49.50
39079;DHT22;24829;49.208;12.080;2023-07-08T16:23:33;31.00;48.60